Grass Lake, MI (49240)

10:43 PM EST del 06 Febbraio 2016 (GMT -0500)
Stull Rd Grup | | Change Station
CLOSE
Current Station
Stazione meteo personale
Location: Grass Lake, MI
Altitudine: 997 ft
Stazioni meteo nelle vicinanze

Alt. 997 ft 42.29 °N, 84.26 °W | Updated 10 minutes ago

Sereno
Sereno
35.1 °F
Sembra 35 °F
N
1.1
Vento Variabile Vento da Sud

Oggi
Massima -- | Minima -- °F
--% Possibilità di precip.
Ieri
Massima -- | Minima -- °F
Precip. -- in
Pressione 30.17 in
Visibilità 10.0 miglia
Nuvole Coperto 3500 ft
Raffreddamento del vento 35 °F
Punto di rugiada 30 °F
Umidità 80%
Piovosità 0.00 in
Spessore del manto nevoso Non disponibile.
7:45 AM 5:57 PM
Luna calante, 3% visible
METAR KJXN 070256Z AUTO 21007KT 10SM OVC035 01/M04 A3013 RMK AO2 SLP215 T00111044 58007 TSNO
Pressione 30.17 in
Visibilità 10.0 miglia
Nuvole Coperto 3500 ft
Raffreddamento del vento 35 °F
Punto di rugiada 30 °F
Umidità 80%
Piovosità 0.00 in
Spessore del manto nevoso Non disponibile.
7:45 AM 5:57 PM
Luna calante, 3% visible
METAR KJXN 070256Z AUTO 21007KT 10SM OVC035 01/M04 A3013 RMK AO2 SLP215 T00111044 58007 TSNO

10-Day Weather Forecast

Almanac

Astronomia

Feb. 06, 2016 Alba Tramonto
Ora attuale
Crepuscolo civile
Crepuscolo nautico
Crepuscolo astronomico
Luna
Estensione della luce visibile
Lunghezza del giorno
Tomorrow will be .
, % of the Moon is Illuminated

Gli estremi di oggi

State Highs State Lows

Community

WunderPhotos

Upload Photos

1,891,154 foto caricate!

WunderBlog® & News

Nearby

Qualità dell'aria

  Qualità dell'aria Indice AQ Inquinante
Not available.

Profondità neve

Stazione Profondità Altitudine

Attività sismica

Città  Distanza Mag. Data & Ora
Minimo Magnitudo Mostrato è 2.5.

Temperature delle acque costiere

Località Temperatura

Stations

Stazioni meteo nelle vicinanze

Ubicazione della stazione Temp. Raffreddamento del vento Punto di rugiada Umidità Vento Precip. Alt. Aggiornato Tipo
                   

Watches & Warnings

There are currently no watches in effect.